METAR Data
IDs: Format: Raw Decoded Include TAF

Data at: 0105 UTC 06 Dec 2019

KLWM 060054Z 26008KT 10SM OVC050 01/M08 A2983 RMK AO2 SLP102 T00061078
KLWM 052354Z 22003KT 10SM FEW050 01/M07 A2980 RMK AO2 SLP094 T00061067 10050 20006 51039
KLWM 052254Z 26006KT 10SM SCT070 02/M06 A2977 RMK AO2 SLP083 T00171056
KLWM 052154Z 26005KT 10SM OVC065 03/M04 A2974 RMK AO2 SLP073 T00281039
KLWM 052054Z 29011G17KT 10SM OVC065 04/M04 A2969 RMK AO2 SLP055 T00391044 53029
KLWM 051954Z 27009KT 10SM SCT047 OVC055 04/M03 A2966 RMK AO2 SLP046 T00441033
KLWM 051854Z 27011KT 10SM OVC050 05/M03 A2963 RMK AO2 SLP034 T00501033
KLWM 051754Z 30008KT 10SM BKN044 05/M03 A2960 RMK AO2 SLP026 T00501033 10050 21056 53003
KLWM 051654Z 29010KT 10SM FEW036 OVC060 04/M03 A2960 RMK AO2 SLP025 T00441028
KLWM 051554Z 28010KT 10SM CLR 04/M02 A2959 RMK AO2 SLP022 T00391022
KLWM 051454Z 24006KT 10SM CLR 02/M02 A2960 RMK AO2 SLP023 T00171022 51016
KLWM 051354Z 22005KT 10SM CLR M02/M03 A2958 RMK AO2 SLP019 T10171033
KLWM 051254Z 00000KT 5SM BR CLR M03/M03 A2957 RMK AO2 SLP014 T10331033
KLWM 051154Z 20004KT 8SM CLR M04/M05 A2955 RMK AO2 SLP007 I1001 I6002 T10391050 11011 21039 53020
KLWM 051054Z AUTO 20003KT 9SM CLR M03/M04 A2953 RMK AO2 SLP001 T10281039
KLWM 050954Z AUTO 22004KT 9SM CLR M03/M04 A2951 RMK AO2 SLP993 I1001 T10331044
KLWM 050854Z AUTO 00000KT 10SM CLR M03/M04 A2949 RMK AO2 SLP987 I1000 I3000 T10281044 53005
KLWM 050754Z AUTO 22003KT 10SM CLR M02/M03 A2948 RMK AO2 SLP985 T10221033
KLWM 050654Z AUTO 21003KT 10SM FEW065 M03/M04 A2948 RMK AO2 SLP984 T10281044
KLWM 050554Z AUTO 22005KT 10SM SCT060 BKN120 M02/M03 A2947 RMK AO2 SLP982 T10171033 10006 21017 55001
KLWM 050454Z AUTO 22003KT 10SM FEW075 OVC100 M01/M03 A2947 RMK AO2 SLP982 T10061028 400171061
KLWM 050354Z AUTO 21003KT 10SM CLR M01/M03 A2948 RMK AO2 SLP983 T10061028
KLWM 050254Z 21004KT 10SM OVC060 00/M02 A2948 RMK AO2 SLP983 T00001022 58003
KLWM 050154Z 22004KT 10SM OVC060 00/M02 A2948 RMK AO2 SLP984 T00001017
KLWM 050054Z 20003KT 10SM OVC055 00/M02 A2949 RMK AO2 SLP986 T00001017
KLWM 042354Z 21005KT 10SM BKN055 00/M02 A2949 RMK AO2 SLP986 T00001022 10017 20000 53007
KLWM 042254Z 20004KT 10SM OVC050 01/M02 A2948 RMK AO2 SLP984 T00111017
KLWM 042154Z 20004KT 10SM OVC055 01/M02 A2947 RMK AO2 SLP980 T00111017
KLWM 042054Z 00000KT 10SM OVC050 02/M02 A2947 RMK AO2 SLP979 T00171017 56005
KLWM 041954Z 18004KT 10SM OVC050 02/M02 A2947 RMK AO2 SLP980 T00171022
KLWM 041854Z 20005KT 10SM SCT095 02/M03 A2947 RMK AO2 SLP980 T00171028
KLWM 041754Z 21004KT 10SM OVC060 01/M03 A2948 RMK AO2 SLP984 T00111028 10011 21050 58014
KLWM 041654Z 22004KT 10SM OVC060 01/M03 A2950 RMK AO2 SLP991 T00061033
KLWM 041554Z 21006KT 10SM SCT070 OVC080 00/M05 A2951 RMK AO2 SLP995 T00001050
KLWM 041454Z 19003KT 10SM SCT065 BKN085 M01/M06 A2952 RMK AO2 SLP999 T10111061 51004
KLWM 041354Z 00000KT 10SM CLR M02/M07 A2952 RMK AO2 SLP998 T10221067